createdAt,value
2023-02-21T00:00:34.538Z,54.72
2023-02-21T00:03:39.527Z,54.44
2023-02-21T00:06:28.965Z,54.95
2023-02-21T00:09:16.548Z,54.71
2023-02-21T00:12:02.358Z,54.71
2023-02-21T00:14:55.065Z,54.86
2023-02-21T00:17:41.025Z,54.73
2023-02-21T00:20:27.917Z,55.46
2023-02-21T00:23:13.147Z,55.38
2023-02-21T00:26:00.312Z,55.37
2023-02-21T00:28:46.265Z,55.85
2023-02-21T00:31:32.320Z,55.78
2023-02-21T00:34:17.996Z,55.58
2023-02-21T00:37:03.959Z,55.98
2023-02-21T00:39:49.345Z,55.97
2023-02-21T00:42:36.485Z,55.58
2023-02-21T00:45:22.010Z,56.16
2023-02-21T00:48:08.042Z,55.86
2023-02-21T00:50:53.295Z,55.77
2023-02-21T00:53:42.355Z,55.82
2023-02-21T00:56:27.711Z,56.06
2023-02-21T00:59:14.638Z,55.92
2023-02-21T01:02:00.690Z,55.38
2023-02-21T01:04:46.530Z,55.42
2023-02-21T01:07:32.332Z,55.47
2023-02-21T01:10:18.459Z,55.16
2023-02-21T01:13:04.080Z,55.21
2023-02-21T01:15:50.913Z,54.79
2023-02-21T01:18:36.901Z,55.03
2023-02-21T01:21:22.821Z,54.71
2023-02-21T01:24:08.632Z,54.51
2023-02-21T01:26:54.576Z,55.13
2023-02-21T01:29:40.105Z,54.50
2023-02-21T01:32:27.352Z,54.82
2023-02-21T01:35:12.875Z,55.04
2023-02-21T01:37:58.761Z,54.31
2023-02-21T01:40:44.790Z,54.52
2023-02-21T01:43:34.821Z,54.86
2023-02-21T01:46:20.268Z,54.83
2023-02-21T01:49:09.811Z,55.07
2023-02-21T01:52:00.182Z,54.95
2023-02-21T01:54:52.893Z,55.09
2023-02-21T01:57:41.926Z,54.44
2023-02-21T02:00:30.356Z,54.81
2023-02-21T02:03:18.083Z,54.99
2023-02-21T02:06:07.185Z,54.85
2023-02-21T02:08:54.071Z,54.56
2023-02-21T02:12:01.494Z,54.98
2023-02-21T02:14:49.097Z,54.86
2023-02-21T02:17:27.591Z,54.56
2023-02-21T02:20:26.407Z,54.89
2023-02-21T02:23:11.293Z,55.01
2023-02-21T02:26:06.634Z,55.15
2023-02-21T02:28:52.003Z,54.58
2023-02-21T02:31:40.875Z,55.08
2023-02-21T02:34:44.536Z,54.47
2023-02-21T02:37:21.439Z,54.38
2023-02-21T02:39:56.389Z,55.09
2023-02-21T02:42:37.862Z,54.87
2023-02-21T02:45:11.871Z,54.62
2023-02-21T02:47:41.259Z,54.74
2023-02-21T02:50:12.419Z,54.78
2023-02-21T02:52:50.521Z,54.80
2023-02-21T02:55:30.647Z,54.88
2023-02-21T02:57:58.594Z,55.24
2023-02-21T03:00:26.301Z,54.75
2023-02-21T03:03:14.903Z,55.42
2023-02-21T03:05:58.634Z,54.96
2023-02-21T03:08:31.840Z,54.56
2023-02-21T03:11:03.965Z,54.62
2023-02-21T03:13:38.064Z,55.28
2023-02-21T03:16:12.949Z,55.40
2023-02-21T03:18:44.903Z,55.05
2023-02-21T03:21:18.823Z,55.40
2023-02-21T03:23:50.149Z,55.41
2023-02-21T03:26:20.958Z,55.22
2023-02-21T03:28:50.168Z,55.04
2023-02-21T03:31:23.348Z,55.52
2023-02-21T03:33:50.325Z,55.02
2023-02-21T03:36:18.989Z,55.57
2023-02-21T03:38:46.127Z,56.06
2023-02-21T03:41:15.867Z,55.73
2023-02-21T03:43:43.060Z,55.43
2023-02-21T03:46:10.516Z,55.81
2023-02-21T03:48:37.480Z,55.60
2023-02-21T03:51:05.048Z,55.65
2023-02-21T03:53:33.476Z,55.73
2023-02-21T03:56:00.685Z,56.08
2023-02-21T03:58:28.676Z,56.03
2023-02-21T04:00:56.019Z,56.29
2023-02-21T04:03:23.171Z,56.09
2023-02-21T04:05:50.670Z,56.26
2023-02-21T04:08:17.859Z,56.47
2023-02-21T04:10:52.198Z,56.58
2023-02-21T04:13:20.173Z,56.12
2023-02-21T04:15:47.691Z,56.53
2023-02-21T04:18:14.975Z,56.32
2023-02-21T04:20:42.181Z,56.51
2023-02-21T04:23:09.201Z,56.73
2023-02-21T04:25:36.479Z,56.79
2023-02-21T04:28:05.356Z,56.70
2023-02-21T04:30:32.331Z,56.75
2023-02-21T04:32:59.414Z,56.61
2023-02-21T04:35:26.768Z,56.72
2023-02-21T04:37:53.823Z,56.63
2023-02-21T04:40:21.234Z,56.67
2023-02-21T04:42:48.203Z,56.57
2023-02-21T04:45:17.079Z,56.64
2023-02-21T04:47:44.172Z,56.46
2023-02-21T04:50:12.322Z,56.71
2023-02-21T04:52:41.041Z,56.70
2023-02-21T04:55:08.860Z,56.46
2023-02-21T04:57:35.836Z,56.63
2023-02-21T05:00:07.359Z,56.58
2023-02-21T05:02:35.694Z,56.50
2023-02-21T05:05:06.006Z,56.64
2023-02-21T05:07:33.324Z,56.85
2023-02-21T05:10:00.641Z,56.83
2023-02-21T05:12:27.607Z,56.89
2023-02-21T05:14:55.066Z,57.00
2023-02-21T05:17:22.112Z,56.89
2023-02-21T05:19:51.893Z,57.48
2023-02-21T05:22:20.464Z,58.09
2023-02-21T05:24:49.125Z,60.57
2023-02-21T05:27:16.636Z,58.58
2023-02-21T05:29:46.767Z,57.82
2023-02-21T05:32:13.891Z,57.54
2023-02-21T05:34:44.532Z,57.32
2023-02-21T05:37:13.388Z,57.07
2023-02-21T05:39:40.429Z,57.28
2023-02-21T05:42:07.896Z,57.27
2023-02-21T05:44:35.968Z,57.37
2023-02-21T05:47:03.200Z,57.00
2023-02-21T05:49:30.478Z,57.24
2023-02-21T05:51:57.461Z,57.01
2023-02-21T05:54:25.939Z,56.51
2023-02-21T05:56:53.993Z,55.31
2023-02-21T05:59:22.182Z,54.79
2023-02-21T06:01:49.989Z,53.86
2023-02-21T06:04:17.787Z,53.83
2023-02-21T06:06:45.098Z,54.12
2023-02-21T06:09:13.058Z,53.51
2023-02-21T06:11:41.498Z,52.99
2023-02-21T06:14:14.717Z,53.03
2023-02-21T06:16:41.989Z,52.69
2023-02-21T06:19:10.157Z,52.67
2023-02-21T06:21:37.244Z,52.62
2023-02-21T06:24:04.882Z,52.59
2023-02-21T06:26:31.870Z,52.58
2023-02-21T06:29:00.868Z,52.18
2023-02-21T06:31:27.866Z,52.03
2023-02-21T06:33:55.477Z,51.51
2023-02-21T06:36:24.669Z,51.63
2023-02-21T06:38:55.025Z,53.54
2023-02-21T06:41:25.286Z,55.52
2023-02-21T06:43:52.888Z,55.29
2023-02-21T06:46:23.474Z,53.57
2023-02-21T06:48:51.394Z,60.06
2023-02-21T06:51:18.967Z,66.31
2023-02-21T06:53:50.520Z,62.16
2023-02-21T06:56:17.676Z,60.80
2023-02-21T06:58:48.989Z,56.90
2023-02-21T07:01:16.492Z,55.43
2023-02-21T07:03:47.739Z,53.37
2023-02-21T07:06:14.864Z,52.63
2023-02-21T07:08:42.062Z,51.97
2023-02-21T07:11:09.364Z,48.69
2023-02-21T07:13:36.856Z,48.27
2023-02-21T07:16:05.222Z,50.80
2023-02-21T07:18:33.038Z,52.22
2023-02-21T07:21:01.444Z,53.14
2023-02-21T07:23:28.798Z,54.37
2023-02-21T07:25:55.835Z,54.77
2023-02-21T07:28:23.184Z,55.59
2023-02-21T07:30:51.896Z,56.40
2023-02-21T07:33:19.015Z,56.83
2023-02-21T07:35:46.500Z,57.05
2023-02-21T07:38:21.840Z,55.50
2023-02-21T07:40:49.349Z,55.56
2023-02-21T07:43:17.202Z,56.56
2023-02-21T07:45:44.604Z,55.81
2023-02-21T07:48:14.607Z,55.47
2023-02-21T07:50:41.806Z,56.64
2023-02-21T07:53:11.238Z,56.10
2023-02-21T07:55:39.654Z,55.57
2023-02-21T07:58:07.293Z,55.08
2023-02-21T08:00:34.546Z,54.48
2023-02-21T08:03:02.141Z,53.83
2023-02-21T08:05:29.041Z,53.49
2023-02-21T08:07:56.334Z,53.32
2023-02-21T08:10:25.870Z,52.95
2023-02-21T08:12:54.659Z,52.75
2023-02-21T08:15:22.956Z,52.36
2023-02-21T08:17:50.937Z,52.32
2023-02-21T08:20:18.820Z,52.06
2023-02-21T08:22:46.392Z,51.93
2023-02-21T08:25:15.455Z,51.78
2023-02-21T08:27:43.784Z,51.82
2023-02-21T08:30:14.742Z,51.67
2023-02-21T08:32:48.339Z,51.30
2023-02-21T08:35:16.534Z,51.39
2023-02-21T08:37:45.316Z,51.09
2023-02-21T08:40:12.898Z,50.49
2023-02-21T08:42:40.720Z,50.66
2023-02-21T08:45:10.723Z,49.99
2023-02-21T08:47:39.465Z,49.80
2023-02-21T08:50:06.872Z,48.70
2023-02-21T08:52:34.254Z,47.58
2023-02-21T08:55:01.287Z,47.96
2023-02-21T08:57:28.714Z,47.75
2023-02-21T08:59:56.109Z,47.60
2023-02-21T09:02:29.005Z,47.56
2023-02-21T09:04:57.396Z,46.78
2023-02-21T09:07:24.825Z,46.99
2023-02-21T09:09:51.856Z,45.68
2023-02-21T09:12:18.985Z,45.85
2023-02-21T09:14:46.204Z,45.83
2023-02-21T09:17:14.208Z,45.40
2023-02-21T09:19:41.767Z,44.98
2023-02-21T09:22:11.344Z,44.90
2023-02-21T09:24:38.695Z,44.02
2023-02-21T09:27:06.813Z,44.30
2023-02-21T09:29:46.021Z,44.40
2023-02-21T09:32:14.768Z,43.90
2023-02-21T09:34:41.841Z,43.06
2023-02-21T09:37:09.247Z,42.24
2023-02-21T09:39:39.464Z,42.91
2023-02-21T09:42:07.103Z,42.17
2023-02-21T09:44:34.918Z,41.85
2023-02-21T09:47:05.369Z,41.40
2023-02-21T09:49:35.482Z,41.15
2023-02-21T09:52:03.591Z,40.29
2023-02-21T09:54:33.726Z,41.27
2023-02-21T09:57:05.127Z,40.33
2023-02-21T09:59:32.940Z,40.44
2023-02-21T10:02:18.796Z,40.94
2023-02-21T10:05:03.957Z,40.59
2023-02-21T10:07:40.712Z,40.00
2023-02-21T10:10:14.575Z,39.54
2023-02-21T10:12:54.267Z,39.66
2023-02-21T10:15:36.495Z,39.63
2023-02-21T10:18:08.650Z,39.43
2023-02-21T10:20:39.441Z,39.15
2023-02-21T10:23:16.020Z,38.90
2023-02-21T10:25:44.744Z,38.81
2023-02-21T10:28:18.425Z,42.35
2023-02-21T10:30:47.731Z,39.65
2023-02-21T10:33:15.390Z,38.09
2023-02-21T10:35:42.854Z,38.25
2023-02-21T10:38:20.526Z,39.49
2023-02-21T10:40:52.190Z,39.08
2023-02-21T10:43:28.155Z,38.18
2023-02-21T10:46:01.399Z,38.61
2023-02-21T10:48:34.859Z,37.90
2023-02-21T10:51:08.002Z,38.06
2023-02-21T10:53:37.293Z,37.19
2023-02-21T10:56:24.568Z,37.43
2023-02-21T10:58:56.488Z,37.49
2023-02-21T11:01:37.070Z,37.69
2023-02-21T11:04:07.139Z,36.74
2023-02-21T11:06:40.004Z,36.75
2023-02-21T11:09:30.949Z,37.13
2023-02-21T11:12:03.739Z,36.82
2023-02-21T11:14:33.769Z,36.15
2023-02-21T11:17:16.150Z,36.92
2023-02-21T11:19:52.206Z,36.49
2023-02-21T11:22:22.868Z,36.21
2023-02-21T11:24:55.679Z,36.68
2023-02-21T11:27:23.513Z,36.14
2023-02-21T11:29:53.917Z,36.08
2023-02-21T11:32:26.248Z,35.62
2023-02-21T11:35:02.658Z,35.64
2023-02-21T11:37:29.983Z,35.74
2023-02-21T11:39:59.672Z,35.50
2023-02-21T11:42:29.933Z,35.50
2023-02-21T11:45:28.443Z,35.18
2023-02-21T11:48:01.369Z,35.16
2023-02-21T11:50:34.242Z,35.04
2023-02-21T11:53:06.798Z,35.31
2023-02-21T11:55:38.884Z,35.04
2023-02-21T11:58:17.829Z,35.35
2023-02-21T12:01:02.349Z,35.07
2023-02-21T12:03:52.348Z,34.90
2023-02-21T12:06:30.187Z,34.73
2023-02-21T12:09:10.841Z,34.69
2023-02-21T12:11:55.841Z,34.24
2023-02-21T12:14:52.289Z,33.73
2023-02-21T12:17:48.607Z,34.44
2023-02-21T12:20:28.270Z,33.88
2023-02-21T12:23:07.022Z,33.77
2023-02-21T12:25:39.393Z,34.13
2023-02-21T12:28:18.623Z,33.85
2023-02-21T12:30:58.062Z,33.84
2023-02-21T12:33:39.097Z,33.12
2023-02-21T12:36:17.207Z,33.18
2023-02-21T12:38:55.062Z,33.36
2023-02-21T12:41:37.715Z,32.98
2023-02-21T12:44:13.500Z,33.36
2023-02-21T12:46:46.503Z,33.21
2023-02-21T12:49:21.541Z,33.36
2023-02-21T12:51:54.332Z,33.05
2023-02-21T12:54:27.067Z,32.72
2023-02-21T12:57:01.711Z,32.06
2023-02-21T12:59:37.046Z,32.47
2023-02-21T13:02:15.743Z,32.41
2023-02-21T13:04:47.146Z,31.32
2023-02-21T13:07:25.626Z,31.20
2023-02-21T13:09:59.828Z,30.89
2023-02-21T13:12:33.927Z,30.27
2023-02-21T13:15:13.384Z,30.93
2023-02-21T13:17:41.730Z,31.34
2023-02-21T13:20:17.995Z,31.41
2023-02-21T13:23:41.461Z,30.77
2023-02-21T13:26:31.287Z,30.63
2023-02-21T13:29:01.619Z,31.07
2023-02-21T13:31:41.115Z,30.99
2023-02-21T13:34:11.551Z,30.66
2023-02-21T13:36:44.361Z,31.14
2023-02-21T13:39:14.846Z,30.77
2023-02-21T13:41:45.342Z,30.89
2023-02-21T13:44:19.009Z,31.47
2023-02-21T13:47:11.799Z,31.39
2023-02-21T13:49:43.121Z,31.54
2023-02-21T13:53:02.347Z,31.45
2023-02-21T13:55:31.603Z,31.68
2023-02-21T13:58:38.462Z,31.40
2023-02-21T14:01:42.563Z,31.52
2023-02-21T14:05:02.020Z,31.65
2023-02-21T14:07:56.256Z,32.08
2023-02-21T14:10:42.282Z,32.13
2023-02-21T14:13:21.361Z,32.37
2023-02-21T14:15:57.212Z,32.72
2023-02-21T14:18:27.092Z,32.76
2023-02-21T14:20:57.979Z,32.89
2023-02-21T14:23:40.798Z,33.12
2023-02-21T14:26:40.289Z,32.79
2023-02-21T14:29:14.643Z,33.07
2023-02-21T14:31:52.598Z,33.22
2023-02-21T14:34:35.836Z,33.27
2023-02-21T14:37:11.489Z,33.59
2023-02-21T14:39:41.383Z,33.64
2023-02-21T14:42:24.408Z,33.49
2023-02-21T14:45:07.829Z,33.78
2023-02-21T14:47:51.428Z,33.87
2023-02-21T14:50:32.422Z,33.98
2023-02-21T14:53:34.912Z,34.20
2023-02-21T14:56:31.024Z,34.32
2023-02-21T14:59:26.776Z,34.28
2023-02-21T15:02:04.939Z,34.26
2023-02-21T15:04:39.506Z,34.47
2023-02-21T15:07:18.845Z,34.72
2023-02-21T15:10:03.772Z,35.05
2023-02-21T15:12:31.012Z,35.13
2023-02-21T15:14:59.705Z,35.16
2023-02-21T15:17:27.097Z,35.34
2023-02-21T15:20:02.394Z,35.44
2023-02-21T15:22:29.577Z,35.62
2023-02-21T15:25:11.314Z,35.63
2023-02-21T15:27:53.876Z,35.68
2023-02-21T15:30:25.448Z,36.20
2023-02-21T15:32:57.674Z,36.13
2023-02-21T15:35:33.643Z,36.38
2023-02-21T15:38:05.676Z,36.44
2023-02-21T15:40:33.313Z,36.78
2023-02-21T15:43:02.685Z,36.84
2023-02-21T15:45:33.991Z,37.25
2023-02-21T15:48:03.536Z,37.24
2023-02-21T15:50:34.724Z,37.48
2023-02-21T15:53:20.731Z,37.49
2023-02-21T15:55:49.326Z,37.78
2023-02-21T15:58:23.910Z,37.89
2023-02-21T16:01:07.219Z,37.89
2023-02-21T16:03:37.030Z,37.87
2023-02-21T16:06:18.648Z,38.34
2023-02-21T16:08:59.720Z,38.30
2023-02-21T16:11:40.986Z,38.65
2023-02-21T16:14:16.472Z,38.64
2023-02-21T16:16:46.261Z,39.03
2023-02-21T16:19:13.443Z,39.21
2023-02-21T16:21:40.649Z,39.43
2023-02-21T16:24:29.380Z,39.66
2023-02-21T16:27:04.488Z,39.71
2023-02-21T16:29:31.683Z,39.63
2023-02-21T16:32:00.487Z,39.78
2023-02-21T16:34:30.653Z,39.90
2023-02-21T16:37:02.367Z,40.14
2023-02-21T16:39:30.801Z,40.08
2023-02-21T16:41:58.558Z,40.24
2023-02-21T16:44:25.612Z,40.33
2023-02-21T16:46:54.312Z,40.41
2023-02-21T16:49:22.860Z,40.36
2023-02-21T16:51:50.805Z,41.38
2023-02-21T16:54:18.131Z,40.97
2023-02-21T16:56:47.926Z,41.01
2023-02-21T16:59:19.221Z,41.25
2023-02-21T17:01:47.055Z,43.16
2023-02-21T17:04:18.279Z,43.08
2023-02-21T17:06:51.851Z,42.05
2023-02-21T17:09:24.996Z,41.69
2023-02-21T17:11:53.161Z,41.82
2023-02-21T17:14:21.317Z,41.96
2023-02-21T17:16:56.290Z,42.02
2023-02-21T17:19:24.857Z,42.20
2023-02-21T17:21:54.038Z,42.34
2023-02-21T17:24:20.983Z,42.43
2023-02-21T17:26:48.366Z,42.58
2023-02-21T17:29:18.145Z,42.58
2023-02-21T17:31:51.580Z,43.29
2023-02-21T17:34:18.756Z,43.07
2023-02-21T17:36:48.858Z,43.68
2023-02-21T17:39:17.817Z,44.74
2023-02-21T17:41:46.359Z,45.87
2023-02-21T17:44:19.280Z,46.89
2023-02-21T17:46:48.434Z,46.97
2023-02-21T17:49:16.240Z,46.72
2023-02-21T17:51:43.544Z,46.36
2023-02-21T17:54:10.596Z,45.64
2023-02-21T17:56:39.612Z,44.49
2023-02-21T17:59:06.807Z,45.82
2023-02-21T18:01:35.970Z,44.93
2023-02-21T18:04:03.424Z,46.20
2023-02-21T18:06:30.810Z,45.42
2023-02-21T18:08:57.772Z,45.90
2023-02-21T18:11:25.411Z,45.30
2023-02-21T18:13:55.638Z,44.69
2023-02-21T18:16:23.370Z,44.77
2023-02-21T18:18:50.938Z,44.87
2023-02-21T18:21:22.290Z,45.04
2023-02-21T18:23:50.981Z,45.43
2023-02-21T18:26:21.732Z,45.69
2023-02-21T18:28:49.311Z,45.54
2023-02-21T18:31:19.811Z,45.46
2023-02-21T18:33:48.782Z,45.63
2023-02-21T18:36:15.972Z,45.96
2023-02-21T18:38:43.047Z,46.05
2023-02-21T18:41:11.537Z,46.23
2023-02-21T18:43:38.807Z,45.99
2023-02-21T18:46:11.612Z,46.28
2023-02-21T18:48:42.031Z,46.48
2023-02-21T18:51:10.543Z,46.58
2023-02-21T18:53:37.964Z,46.93
2023-02-21T18:56:10.437Z,46.82
2023-02-21T18:58:38.120Z,46.81
2023-02-21T19:01:06.810Z,47.83
2023-02-21T19:03:34.245Z,47.87
2023-02-21T19:06:02.828Z,48.21
2023-02-21T19:08:30.234Z,48.34
2023-02-21T19:10:57.436Z,48.43
2023-02-21T19:13:26.979Z,49.41
2023-02-21T19:15:57.231Z,49.71
2023-02-21T19:18:24.219Z,49.66
2023-02-21T19:20:56.697Z,49.85
2023-02-21T19:23:27.329Z,49.81
2023-02-21T19:25:55.405Z,50.07
2023-02-21T19:28:24.054Z,49.84
2023-02-21T19:30:51.128Z,49.77
2023-02-21T19:33:18.663Z,49.70
2023-02-21T19:35:46.130Z,49.22
2023-02-21T19:38:15.923Z,49.35
2023-02-21T19:40:45.040Z,49.16
2023-02-21T19:43:16.197Z,49.44
2023-02-21T19:45:44.852Z,49.16
2023-02-21T19:48:11.825Z,49.53
2023-02-21T19:50:39.704Z,49.80
2023-02-21T19:53:09.783Z,50.16
2023-02-21T19:55:37.152Z,50.26
2023-02-21T19:58:08.504Z,51.15
2023-02-21T20:00:36.983Z,51.98
2023-02-21T20:03:05.733Z,51.52
2023-02-21T20:05:33.094Z,50.76
2023-02-21T20:08:00.124Z,50.75
2023-02-21T20:10:27.343Z,50.36
2023-02-21T20:12:56.736Z,50.56
2023-02-21T20:15:28.512Z,50.66
2023-02-21T20:17:55.782Z,50.97
2023-02-21T20:20:22.956Z,50.75
2023-02-21T20:22:49.985Z,50.89
2023-02-21T20:25:17.336Z,51.00
2023-02-21T20:27:44.316Z,51.07
2023-02-21T20:30:12.917Z,51.23
2023-02-21T20:32:41.722Z,51.20
2023-02-21T20:35:10.251Z,51.14
2023-02-21T20:37:40.027Z,51.27
2023-02-21T20:40:10.892Z,51.57
2023-02-21T20:42:38.158Z,51.71
2023-02-21T20:45:08.359Z,52.03
2023-02-21T20:47:35.323Z,51.69
2023-02-21T20:50:04.565Z,51.80
2023-02-21T20:52:31.367Z,52.08
2023-02-21T20:54:58.650Z,52.25
2023-02-21T20:57:27.086Z,52.15
2023-02-21T20:59:54.223Z,52.50
2023-02-21T21:02:21.259Z,52.14
2023-02-21T21:04:48.560Z,52.30
2023-02-21T21:07:22.456Z,52.10
2023-02-21T21:09:50.342Z,52.01
2023-02-21T21:12:19.133Z,52.02
2023-02-21T21:14:47.377Z,52.19
2023-02-21T21:17:20.613Z,52.07
2023-02-21T21:19:49.354Z,51.92
2023-02-21T21:22:32.767Z,52.73
2023-02-21T21:25:05.484Z,52.51
2023-02-21T21:27:40.560Z,52.80
2023-02-21T21:30:12.367Z,52.86
2023-02-21T21:32:45.564Z,53.09
2023-02-21T21:35:16.869Z,52.98
2023-02-21T21:37:46.214Z,53.14
2023-02-21T21:40:17.944Z,52.82
2023-02-21T21:42:52.054Z,52.97
2023-02-21T21:45:26.537Z,52.92
2023-02-21T21:48:02.543Z,52.74
2023-02-21T21:50:30.036Z,52.76
2023-02-21T21:53:00.305Z,52.77
2023-02-21T21:55:29.920Z,52.91
2023-02-21T21:57:59.824Z,53.15
2023-02-21T22:00:29.418Z,53.06
2023-02-21T22:03:00.371Z,53.54
2023-02-21T22:05:35.438Z,53.65
2023-02-21T22:08:09.270Z,53.79
2023-02-21T22:10:40.263Z,54.07
2023-02-21T22:13:13.603Z,53.38
2023-02-21T22:15:45.003Z,53.49
2023-02-21T22:18:18.299Z,53.31
2023-02-21T22:20:50.671Z,53.26
2023-02-21T22:23:26.308Z,53.33
2023-02-21T22:25:57.201Z,53.30
2023-02-21T22:28:25.737Z,53.52
2023-02-21T22:30:53.000Z,53.37
2023-02-21T22:33:24.184Z,53.55
2023-02-21T22:35:51.521Z,53.53
2023-02-21T22:38:24.737Z,53.59
2023-02-21T22:40:51.983Z,53.83
2023-02-21T22:43:20.045Z,53.71
2023-02-21T22:45:50.294Z,53.72
2023-02-21T22:48:20.578Z,53.91
2023-02-21T22:50:48.746Z,54.06
2023-02-21T22:53:18.947Z,54.15
2023-02-21T22:55:52.094Z,53.94
2023-02-21T22:58:20.549Z,53.74
2023-02-21T23:00:48.820Z,53.93
2023-02-21T23:03:16.671Z,53.82
2023-02-21T23:05:45.891Z,53.68
2023-02-21T23:08:15.083Z,54.17
2023-02-21T23:10:43.049Z,53.84
2023-02-21T23:13:16.899Z,53.83
2023-02-21T23:15:45.397Z,54.00
2023-02-21T23:18:21.056Z,53.79
2023-02-21T23:20:52.598Z,53.79
2023-02-21T23:23:20.766Z,53.59
2023-02-21T23:25:48.369Z,53.83
2023-02-21T23:28:17.374Z,53.85
2023-02-21T23:30:46.168Z,54.23
2023-02-21T23:33:15.926Z,54.18
2023-02-21T23:35:44.296Z,54.93
2023-02-21T23:38:15.584Z,55.14
2023-02-21T23:40:44.285Z,54.89
2023-02-21T23:43:12.053Z,54.85
2023-02-21T23:45:41.015Z,55.14
2023-02-21T23:48:10.337Z,54.77
2023-02-21T23:50:37.756Z,55.19
2023-02-21T23:53:05.976Z,54.57
2023-02-21T23:55:35.855Z,55.15
2023-02-21T23:58:08.809Z,54.81
